Latest Weather Observations for Melbourne (Olympic Park)

IDV60901

Issued at 5:21 pm EST Tuesday 20 August 2019 (issued every 10 minutes, with the page automatically refreshed every 10 minutes)

About weather observations | Map of Melbourne area stations | Latest observations for Melbourne area | Other Formats
Station Details ID: 086338 Name: MELBOURNE (OLYMPIC PARK) Lat: -37.83 Lon: 144.98 Height: 7.53 m
Data from the previous 72 hours. | See also: Recent months at Melbourne (Olympic Park)
Date/Time
EST
Temp
°C
App
Temp
°C
Dew
Point
°C
Rel
Hum
%
Delta-T
°C
Wind Press
QNH
hPa
Press
MSL
hPa
Rain since
9am
mm
Dir  Spd
km/h
Gust
km/h
Spd
kts
Gust
kts
20/05:00pm 15.4 11.8 6.9 57 4.2 W 15 32 8 17 1020.3 1020.3 0.0
20/04:30pm 15.7 11.1 6.4 54 4.5 NW 20 37 11 20 1020.4 1020.4 0.0
20/04:00pm 15.8 11.2 6.3 53 4.6 NW 20 35 11 19 1020.4 1020.4 0.0
20/03:30pm 16.3 12.2 6.4 52 4.8 WNW 17 32 9 17 1020.6 1020.6 0.0
20/03:00pm 16.6 13.8 7.0 53 4.7 W 11 20 6 11 1020.8 1020.8 0.0
20/02:30pm 15.6 12.8 6.9 56 4.3 W 11 20 6 11 1021.2 1021.2 0.0
20/02:00pm 15.3 11.3 6.6 56 4.2 WNW 17 26 9 14 1021.3 1021.3 0.0
20/01:30pm 14.8 11.5 6.6 58 4.0 NW 13 24 7 13 1021.5 1021.5 0.0
20/01:00pm 14.3 9.7 6.4 59 3.8 NW 20 37 11 20 1021.7 1021.7 0.0
20/12:30pm 13.8 9.7 6.4 61 3.5 WNW 17 32 9 17 1022.2 1022.2 0.0
20/12:00pm 13.4 9.4 6.5 63 3.3 NW 17 33 9 18 1022.6 1022.6 0.0
20/11:30am 13.0 9.7 6.4 64 3.1 NW 13 22 7 12 1023.2 1023.2 0.0
20/11:00am 12.8 9.4 5.9 63 3.2 NW 13 22 7 12 1023.5 1023.5 0.0
20/10:30am 12.4 7.8 5.8 64 3.1 NW 19 33 10 18 1023.7 1023.7 0.0
20/10:00am 12.5 7.8 5.9 64 3.1 NW 20 32 11 17 1023.5 1023.5 0.0
20/09:30am 11.9 8.1 6.0 67 2.8 NW 15 26 8 14 1023.7 1023.7 0.0
20/09:00am 11.7 8.3 6.0 68 2.7 NW 13 20 7 11 1023.8 1023.8 0.4
20/08:30am 11.6 7.9 6.1 69 2.6 NW 15 24 8 13 1023.6 1023.6 0.4
20/08:00am 10.7 7.3 5.7 71 2.3 NNW 13 20 7 11 1023.5 1023.5 0.4
20/07:30am 10.5 7.4 5.5 71 2.3 NW 11 20 6 11 1023.5 1023.5 0.4
20/07:00am 10.6 6.7 5.4 70 2.4 NW 15 30 8 16 1023.3 1023.3 0.4
20/06:30am 10.7 7.1 4.8 67 2.7 NW 13 22 7 12 1023.3 1023.3 0.4
20/06:00am 10.5 8.1 5.1 69 2.4 WNW 7 17 4 9 1023.3 1023.3 0.4
20/05:30am 10.5 7.7 5.3 70 2.4 NW 9 13 5 7 1023.3 1023.3 0.4
20/05:00am 10.3 6.3 5.1 70 2.3 NW 15 20 8 11 1023.2 1023.2 0.4
20/04:30am 10.2 6.6 5.0 70 2.3 NW 13 22 7 12 1023.1 1023.1 0.4
20/04:00am 10.2 6.6 5.2 71 2.3 NW 13 20 7 11 1023.3 1023.3 0.4
20/03:30am 10.1 6.2 5.3 72 2.2 NW 15 24 8 13 1023.4 1023.4 0.4
20/03:00am 10.2 6.7 5.4 72 2.2 NW 13 20 7 11 1023.9 1023.9 0.4
20/02:30am 10.1 7.4 5.7 74 2.0 NW 9 15 5 8 1023.9 1023.9 0.4
20/02:00am 9.9 6.8 5.5 74 2.0 NW 11 20 6 11 1024.1 1024.1 0.4
20/01:30am 9.7 6.6 5.5 75 1.9 NW 11 20 6 11 1024.5 1024.5 0.4
20/01:00am 9.8 6.7 5.4 74 2.0 NW 11 19 6 10 1024.5 1024.5 0.4
20/12:30am 9.7 6.9 5.1 73 2.1 NW 9 15 5 8 1024.6 1024.6 0.4
20/12:00am 9.6 6.7 4.8 72 2.1 NW 9 13 5 7 1024.6 1024.6 0.4
 
Date/Time
EST
Temp
°C
App
Temp
°C
Dew
Point
°C
Rel
Hum
%
Delta-T
°C
Wind Press
QNH
hPa
Press
MSL
hPa
Rain since
9am
mm
Dir  Spd
km/h
Gust
km/h
Spd
kts
Gust
kts
19/11:30pm 9.4 6.5 4.8 73 2.1 NNW 9 17 5 9 1024.6 1024.6 0.4
19/11:00pm 8.9 6.4 4.5 74 1.9 NW 7 13 4 7 1024.6 1024.6 0.4
19/10:30pm 9.3 5.6 4.5 72 2.1 NW 13 20 7 11 1024.6 1024.6 0.4
19/10:00pm 9.4 5.7 4.4 71 2.2 NNW 13 17 7 9 1024.5 1024.5 0.4
19/09:30pm 9.5 5.7 4.1 69 2.4 NNW 13 20 7 11 1024.5 1024.5 0.4
19/09:00pm 9.2 5.8 4.0 70 2.3 NW 11 17 6 9 1024.2 1024.2 0.4
19/08:30pm 9.6 6.7 4.4 70 2.3 NW 9 17 5 9 1024.1 1024.1 0.4
19/08:00pm 9.7 6.8 4.5 70 2.3 NW 9 17 5 9 1023.8 1023.8 0.4
19/07:30pm 9.8 6.9 4.4 69 2.4 NW 9 13 5 7 1023.4 1023.4 0.4
19/07:00pm 10.2 7.2 4.1 66 2.7 WNW 9 17 5 9 1023.2 1023.2 0.4
19/06:30pm 10.2 7.1 3.7 64 2.8 WNW 9 20 5 11 1022.7 1022.7 0.4
19/06:00pm 10.4 7.1 4.3 66 2.7 W 11 24 6 13 1022.2 1022.2 0.4
19/05:30pm 10.5 7.1 4.2 65 2.8 WNW 11 22 6 12 1021.8 1021.8 0.4
19/05:00pm 10.7 7.3 4.2 64 2.9 W 11 24 6 13 1021.5 1021.5 0.4
19/04:30pm 11.3 7.5 3.8 60 3.3 WSW 13 28 7 15 1021.2 1021.2 0.4
19/04:00pm 11.8 8.6 5.2 64 3.0 WSW 11 24 6 13 1020.8 1020.8 0.4
19/03:30pm 11.1 7.1 4.8 65 2.9 W 15 30 8 16 1020.8 1020.8 0.2
19/03:00pm 11.3 7.7 5.0 65 2.9 W 13 26 7 14 1020.3 1020.3 0.2
19/02:30pm 10.5 7.9 5.9 73 2.1 W 9 17 5 9 1020.3 1020.3 0.2
19/02:00pm 11.5 8.0 3.5 58 3.5 SW 11 24 6 13 1019.8 1019.8 0.0
19/01:30pm 10.7 7.1 5.0 68 2.6 WSW 13 30 7 16 1020.0 1020.0 0.0
19/01:00pm 11.1 6.0 2.9 57 3.5 W 19 32 10 17 1019.7 1019.7 0.0
19/12:30pm 11.7 7.2 1.9 51 4.2 W 15 26 8 14 1019.7 1019.7 0.0
19/12:00pm 11.1 7.0 2.2 54 3.8 WSW 13 26 7 14 1019.6 1019.6 0.0
19/11:30am 10.6 5.8 2.4 57 3.5 WSW 17 32 9 17 1019.7 1019.7 0.0
19/11:00am 10.4 5.9 2.3 57 3.4 W 15 35 8 19 1019.6 1019.6 0.0
19/10:30am 9.9 5.5 2.5 60 3.1 W 15 32 8 17 1019.1 1019.1 0.0
19/10:00am 9.0 4.1 2.3 63 2.8 WNW 17 35 9 19 1018.7 1018.7 0.0
19/09:30am 8.4 4.3 2.2 65 2.6 WNW 13 35 7 19 1018.1 1018.1 0.0
19/09:00am 7.8 3.4 2.5 69 2.2 W 15 24 8 13 1017.8 1017.8 4.0
19/08:30am 6.9 2.8 2.0 71 2.0 WNW 13 32 7 17 1017.4 1017.4 4.0
19/08:00am 6.2 2.0 1.9 74 1.7 NW 13 20 7 11 1016.9 1016.9 4.0
19/07:30am 5.9 2.1 1.8 75 1.6 WNW 11 22 6 12 1016.4 1016.4 4.0
19/07:00am 5.9 2.5 1.8 75 1.6 WNW 9 17 5 9 1015.7 1015.7 4.0
19/06:30am 6.1 2.8 2.2 76 1.6 WNW 9 20 5 11 1015.1 1015.1 4.0
19/06:00am 5.9 1.7 1.8 75 1.6 WNW 13 20 7 11 1014.5 1014.5 4.0
19/05:30am 6.2 2.5 2.3 76 1.6 W 11 22 6 12 1014.1 1014.1 4.0
19/05:00am 6.5 1.6 2.2 74 1.8 WNW 17 39 9 21 1013.5 1013.5 4.0
19/04:30am 6.5 3.1 2.0 73 1.8 WNW 9 35 5 19 1013.3 1013.3 4.0
19/04:00am 6.6 2.4 1.9 72 1.9 W 13 20 7 11 1013.1 1013.1 4.0
19/03:30am 6.9 2.8 2.0 71 2.0 WNW 13 24 7 13 1012.8 1012.8 4.0
19/03:00am 7.0 3.0 2.7 74 1.8 NW 13 28 7 15 1012.3 1012.3 4.0
19/02:30am 7.2 3.6 3.1 75 1.7 WNW 11 20 6 11 1012.1 1012.1 4.0
19/02:00am 7.5 4.3 3.0 73 1.9 WNW 9 20 5 11 1012.1 1012.1 4.0
19/01:30am 7.7 3.8 3.4 74 1.8 NW 13 20 7 11 1011.9 1011.9 4.0
19/01:00am 7.9 3.9 3.0 71 2.1 WNW 13 33 7 18 1011.7 1011.7 4.0
19/12:30am 8.0 4.0 3.1 71 2.1 WNW 13 20 7 11 1011.3 1011.3 4.0
19/12:00am 7.8 3.9 3.3 73 1.9 WNW 13 22 7 12 1011.0 1011.0 4.0
 
Date/Time
EST
Temp
°C
App
Temp
°C
Dew
Point
°C
Rel
Hum
%
Delta-T
°C
Wind Press
QNH
hPa
Press
MSL
hPa
Rain since
9am
mm
Dir  Spd
km/h
Gust
km/h
Spd
kts
Gust
kts
18/11:30pm 7.7 3.0 3.4 74 1.8 WNW 17 28 9 15 1010.5 1010.5 4.0
18/11:00pm 8.1 3.8 3.4 72 2.0 W 15 24 8 13 1010.1 1010.1 4.0
18/10:30pm 8.4 4.1 3.5 71 2.1 WNW 15 41 8 22 1009.7 1009.7 4.0
18/10:00pm 8.6 3.3 3.2 69 2.3 W 20 37 11 20 1009.0 1009.0 4.0
18/09:30pm 8.5 3.9 3.6 71 2.1 W 17 39 9 21 1008.2 1008.2 4.0
18/09:00pm 8.5 3.9 3.8 72 2.0 W 17 32 9 17 1007.6 1007.6 4.0
18/08:30pm 9.5 4.4 4.3 70 2.3 WNW 20 44 11 24 1007.3 1007.3 4.0
18/08:00pm 11.1 7.4 4.3 63 3.1 NW 13 19 7 10 1006.1 1006.1 4.0
18/07:30pm 11.2 8.0 4.9 65 2.9 N 11 19 6 10 1005.7 1005.7 4.0
18/07:00pm 11.3 7.4 5.4 67 2.7 N 15 24 8 13 1005.2 1005.2 4.0
18/06:30pm 11.2 7.4 5.9 70 2.5 N 15 24 8 13 1005.2 1005.2 4.0
18/06:00pm 10.8 8.3 6.4 74 2.1 N 9 22 5 12 1004.9 1004.9 4.0
18/05:30pm 10.7 7.1 6.8 77 1.8 N 15 24 8 13 1004.6 1004.6 4.0
18/05:00pm 10.9 6.3 6.6 75 2.0 N 20 28 11 15 1004.6 1004.6 4.0
18/04:30pm 10.8 7.1 7.9 82 1.4 N 17 28 9 15 1004.8 1004.8 4.0
18/04:00pm 11.1 8.9 8.0 81 1.5 WNW 9 17 5 9 1005.4 1005.4 3.2
18/03:30pm 12.0 9.4 7.9 76 2.0 NW 11 20 6 11 1005.2 1005.2 2.0
18/03:00pm 13.3 10.5 7.1 66 3.0 WNW 11 20 6 11 1004.6 1004.6 0.6
18/02:30pm 15.5 10.9 5.4 51 4.8 NNW 19 32 10 17 1004.3 1004.3 0.0
18/02:00pm 16.1 11.1 4.8 47 5.4 NNW 20 30 11 16 1004.1 1004.1 0.0
18/01:30pm 16.9 12.5 4.9 45 5.7 NNW 17 32 9 17 1004.4 1004.4 0.0
18/01:00pm 17.2 11.4 4.2 42 6.1 N 24 46 13 25 1004.7 1004.7 0.0
18/12:30pm 17.2 9.6 3.8 41 6.2 NNW 33 56 18 30 1005.1 1005.1 0.0
18/12:00pm 18.1 10.6 3.2 37 6.9 NNW 32 52 17 28 1004.8 1004.8 0.0
18/11:30am 18.2 10.5 3.3 37 6.9 N 33 61 18 33 1004.9 1004.9 0.0
18/11:00am 19.2 11.5 3.4 35 7.4 N 33 56 18 30 1005.0 1005.0 0.0
18/10:30am 18.8 11.6 3.0 35 7.3 N 30 48 16 26 1005.4 1005.4 0.0
18/10:24am 18.9 11.7 3.1 35 7.4 N 30 48 16 26 1005.5 1005.5 0.0
18/10:00am 18.4 12.4 3.1 36 7.1 N 24 43 13 23 1005.3 1005.3 0.0
18/09:40am 18.1 11.3 3.2 37 6.9 N 28 46 15 25 1005.6 1005.6 0.0
18/09:30am 17.8 12.6 3.7 39 6.6 N 20 35 11 19 1006.1 1006.1 0.0
18/09:00am 16.4 11.2 3.5 42 6.0 NNE 20 41 11 22 1006.6 1006.6 0.0
18/08:30am 14.4 10.2 3.8 49 4.8 N 15 22 8 12 1008.0 1008.0 0.0
18/08:00am 13.3 9.5 3.9 53 4.3 N 13 20 7 11 1008.3 1008.3 0.0
18/07:30am 12.6 9.2 3.8 55 3.9 N 11 15 6 8 1008.2 1008.2 0.0
18/07:00am 12.1 9.1 4.1 58 3.6 NNE 9 17 5 9 1008.3 1008.3 0.0
18/06:30am 12.7 8.2 4.2 56 3.9 NNE 17 26 9 14 1008.6 1008.6 0.0
18/06:00am 12.8 8.3 4.3 56 3.9 NNE 17 26 9 14 1009.1 1009.1 0.0
18/05:30am 12.7 9.0 4.4 57 3.8 N 13 20 7 11 1009.8 1009.8 0.0
18/05:00am 12.9 8.8 4.1 55 4.0 NNE 15 24 8 13 1009.8 1009.8 0.0
18/04:30am 12.4 8.6 4.1 57 3.7 NNE 13 20 7 11 1010.4 1010.4 0.0
18/04:00am 12.2 8.5 4.4 59 3.5 NNE 13 20 7 11 1010.9 1010.9 0.0
18/03:30am 12.6 8.2 4.6 58 3.7 N 17 26 9 14 1011.2 1011.2 0.0
18/03:00am 12.2 7.9 5.4 63 3.2 N 17 32 9 17 1011.7 1011.7 0.0
18/02:30am 11.6 7.5 6.1 69 2.6 N 17 28 9 15 1012.2 1012.2 0.0
18/02:00am 11.9 7.4 6.0 67 2.8 N 19 32 10 17 1012.6 1012.6 0.0
18/01:30am 11.6 7.5 6.1 69 2.6 N 17 24 9 13 1012.8 1012.8 0.0
18/01:00am 11.1 6.5 6.3 72 2.2 N 20 28 11 15 1013.5 1013.5 0.0
18/12:30am 11.4 7.6 5.7 68 2.6 N 15 20 8 11 1014.3 1014.3 0.0
18/12:00am 11.3 7.5 5.6 68 2.6 NNE 15 20 8 11 1013.8 1013.8 0.0
 
Date/Time
EST
Temp
°C
App
Temp
°C
Dew
Point
°C
Rel
Hum
%
Delta-T
°C
Wind Press
QNH
hPa
Press
MSL
hPa
Rain since
9am
mm
Dir  Spd
km/h
Gust
km/h
Spd
kts
Gust
kts
17/11:30pm 10.7 8.1 5.9 72 2.2 NNE 9 13 5 7 1014.3 1014.3 0.0
17/11:00pm 10.6 7.1 5.4 70 2.4 N 13 28 7 15 1014.7 1014.7 0.0
17/10:30pm 10.4 7.3 5.4 71 2.3 NNE 11 13 6 7 1015.5 1015.5 0.0
17/10:00pm 10.8 8.0 5.3 69 2.5 N 9 15 5 8 1016.4 1016.4 0.0
17/09:30pm 11.1 8.0 5.4 68 2.6 NNW 11 15 6 8 1016.7 1016.7 0.0
17/09:00pm 11.8 9.4 5.2 64 3.0 N 7 11 4 6 1016.4 1016.4 0.0
17/08:30pm 12.3 9.1 5.2 62 3.3 N 11 17 6 9 1016.7 1016.7 0.0
17/08:00pm 12.8 9.9 4.8 58 3.7 NNE 9 13 5 7 1016.7 1016.7 0.0
17/07:30pm 13.1 10.2 4.5 56 3.9 N 9 13 5 7 1016.8 1016.8 0.0
17/07:00pm 13.4 10.5 4.6 55 4.0 N 9 13 5 7 1016.6 1016.6 0.0
17/06:30pm 13.8 10.9 4.7 54 4.2 N 9 13 5 7 1016.2 1016.2 0.0
17/06:00pm 14.6 10.9 4.6 51 4.6 N 13 20 7 11 1016.3 1016.3 0.0
17/05:30pm 14.9 10.5 4.6 50 4.8 N 17 24 9 13 1016.5 1016.5 0.0

Latest Capital City Observations: Canberra | Sydney | Melbourne | Brisbane | Adelaide | Perth | Hobart | Darwin

Other formats

Comma delimited format used in spreadsheet applications
http://www.bom.gov.au/fwo/IDV60901/IDV60901.95936.axf

JavaScript Object Notation format (JSON) in row-major order
http://www.bom.gov.au/fwo/IDV60901/IDV60901.95936.json

Data quality

Most of these data are generated automatically and are frequently updated. Quality checks on data are not normally performed. It is possible for incorrect values to appear. Refer to information at About Latest Weather Observations and please check the disclaimer before using these data.